Airfield :
LOGIN :

Register | Disclaimer

   EN    FR    IT 

 










Legend :    VFR   Marginal VFR   IFR   Intensive IFR   Very Intensive IFR
Visi :
Ceiling :
>= 8 km
>= 3000ft
5 to 8 km
1000 to 3000 ft
1500m to 5 km
500 to 1000 ft
800 to 1500m
200 to 500 ft
< 800m
< 200 ft
Symbols :   Thunderstorms  Fog  Heavy snow  Heavy precipitations  Wind > 20 kt
SIGMETs :     Misc.  Thunderstorms  Icing  Turbulence  Mountain Waves  Volcanic Ashes







- Airport Elevation : 297 ft
- IATA code : UIP
- Download approach charts


LFRQ - Quimper Pluguffan

CURRENT METAR :
  • 160630Z AUTO 25007KT 4000 DZ BR OVC005 13/13 Q1019 TEMPO SCT012TCU BECMG 9999 NSW

EXPIRED METARs :
  • 160600Z AUTO 25009KT 5000 -RADZ BR FEW006 BKN017 OVC022 13/13 Q1019 TEMPO SHRA SCT012TCU
  • 160530Z AUTO 25010KT 220V280 2800 -RA BR BKN007 BKN019 OVC031 13/12 Q1018 TEMPO SCT012TCU BECMG 9999 NSW
  • 160500Z AUTO 22009KT 9999 OVC008 14/13 Q1018
  • 160430Z AUTO 22010KT 190V250 9999 OVC008 14/13 Q1018
  • 160400Z AUTO 23010KT 9999 BKN008 OVC012 14/13 Q1018

TAF TAF LFRQ
Valid from the 16 at 06:00 until the 17 at 06:00 UTC


160500Z 1606/1706 22010KT 9999 OVC008 OVC012
TEMPO 1606/1612 SHRA SCT012TCU
BECMG 1611/1613 BKN020
No reported NOTAMs for that airfield.



MET'MAP, your aeronautical weather chart ! - Copyright ORBIFLY December 2007 - Disclaimer

ORBIFLY MET'MAP TEAM :

Programming & Development : Alexandra Zaïnal
Concept & Development : Baudouin d'Aumeries
Co-Development & Prog : Marc-Olivier Méhu
Technical & hardware support : Manuel Goepfert

Contact : metmap@orbifly.com




SOURCES & CREDITS :

   NOAA